Terminal Aerodrome Forecast
Issued by NWS Flagstaff, AZ

Home | Current Version | Previous Version | Text Only | Print | Product List | Glossary On
Versions: 1 2 3 4 5 6 7 8 9 10 11 12 13 14 15
000
FTUS45 KFGZ 072340
TAFFLG
TAF
KFLG 072340Z 0800/0824 23010KT P6SM VCTS SCT100CB
      TEMPO 0800/0802 5SM -TSRA FEW045 BKN080CB
     FM080300 VRB03KT P6SM FEW120
     FM081800 23009KT P6SM BKN100=

USA.gov is the U.S. government's official web portal to all federal, state and local government web resources and services.